Time;durP1;ratioP1;P1;durP2;ratioP2;P2;SDS_P1;SDS_P2;PMS_P1;PMS_P2;Temp;Humidity;BMP_temperature;BMP_pressure;BME280_temperature;BME280_humidity;BME280_pressure;Samples;Min_cycle;Max_cycle;Signal;HPM_P1;HPM_P2
2022/01/22 00:00:22;;;;;;;21.15;12.82;;;;;;;4.38;100.00;101045.81;5117874;27;20308;-76
2022/01/22 00:02:50;;;;;;;15.68;11.57;;;;;;;4.44;100.00;101044.91;5118183;27;20198;-76
2022/01/22 00:05:20;;;;;;;18.13;13.10;;;;;;;4.41;100.00;101042.28;5130828;27;20581;-76
2022/01/22 00:07:47;;;;;;;19.60;12.40;;;;;;;4.50;100.00;101042.19;5133870;28;20582;-76
2022/01/22 00:10:16;;;;;;;18.00;11.57;;;;;;;4.51;100.00;101027.94;5133150;28;20654;-75
2022/01/22 00:13:06;;;;;;;19.30;12.50;;;;;;;4.48;100.00;101037.75;5128599;27;20230;-75
2022/01/22 00:15:32;;;;;;;17.92;12.15;;;;;;;4.30;100.00;101041.50;5128391;28;20199;-75
2022/01/22 00:17:59;;;;;;;19.02;13.43;;;;;;;4.39;100.00;101034.28;5132555;28;20250;-75
2022/01/22 00:20:29;;;;;;;24.05;13.80;;;;;;;4.42;100.00;101032.47;5132603;28;20237;-74
2022/01/22 00:22:56;;;;;;;24.30;12.18;;;;;;;4.31;100.00;101030.78;5133216;28;20270;-75
2022/01/22 00:25:23;;;;;;;21.80;13.13;;;;;;;4.37;100.00;101032.53;5133260;27;20187;-75
2022/01/22 00:27:51;;;;;;;20.48;12.50;;;;;;;4.48;100.00;101027.09;5132051;28;20194;-75
2022/01/22 00:30:20;;;;;;;20.80;12.90;;;;;;;4.34;100.00;101030.78;5132854;28;20221;-76
2022/01/22 00:32:47;;;;;;;17.48;13.05;;;;;;;4.42;100.00;101033.34;5120523;27;20296;-76
2022/01/22 00:35:14;;;;;;;16.85;12.02;;;;;;;4.47;100.00;101025.31;5112923;28;20290;-76
2022/01/22 00:37:44;;;;;;;18.13;12.95;;;;;;;4.50;100.00;101027.94;5131209;28;20233;-76
2022/01/22 00:40:13;;;;;;;18.35;10.40;;;;;;;4.47;100.00;101035.97;5132971;28;20219;-76
2022/01/22 00:42:40;;;;;;;17.10;11.48;;;;;;;4.51;100.00;101035.06;5132579;28;20194;-76
2022/01/22 00:45:07;;;;;;;20.25;11.85;;;;;;;4.49;100.00;101039.50;5132574;28;20274;-76
2022/01/22 00:47:34;;;;;;;20.55;12.32;;;;;;;4.57;100.00;101035.00;5132406;28;20284;-76
2022/01/22 00:50:02;;;;;;;16.50;12.25;;;;;;;4.42;100.00;101035.16;5132840;28;20221;-76
2022/01/22 00:52:28;;;;;;;21.73;12.63;;;;;;;4.37;100.00;101036.06;5122404;28;20207;-76
2022/01/22 00:54:56;;;;;;;25.95;12.73;;;;;;;4.38;100.00;101035.16;5118226;27;20590;-75
2022/01/22 00:57:23;;;;;;;21.55;12.52;;;;;;;4.49;100.00;101032.38;5137000;27;20619;-76
2022/01/22 00:59:50;;;;;;;20.50;11.60;;;;;;;4.53;100.00;101028.81;5136957;27;20726;-76
2022/01/22 01:02:16;;;;;;;19.83;12.63;;;;;;;4.32;100.00;101029.91;5136465;27;20195;-76
2022/01/22 01:04:43;;;;;;;16.70;11.52;;;;;;;4.44;100.00;101034.22;5136194;27;20217;-76
2022/01/22 01:07:10;;;;;;;18.83;12.50;;;;;;;4.37;100.00;101033.41;5132986;27;20233;-75
2022/01/22 01:09:39;;;;;;;19.50;13.18;;;;;;;4.41;100.00;101025.34;5136575;27;20309;-76
2022/01/22 01:12:11;;;;;;;21.67;13.13;;;;;;;4.34;100.00;101035.22;5128626;27;20225;-75
2022/01/22 01:14:42;;;;;;;18.70;12.90;;;;;;;4.48;100.00;101041.31;5116044;28;20253;-76
2022/01/22 01:17:22;;;;;;;22.98;14.50;;;;;;;4.40;100.00;101029.81;5127114;27;20624;-75
2022/01/22 01:33:40;;;;;;;19.33;11.93;;;;;;;4.42;100.00;101025.34;5116986;27;20201;-75
2022/01/22 01:36:07;;;;;;;26.90;13.85;;;;;;;4.51;100.00;101019.03;5135062;27;20223;-75
2022/01/22 01:38:38;;;;;;;20.63;12.75;;;;;;;4.36;100.00;101018.31;5136164;27;20206;-75
2022/01/22 01:41:15;;;;;;;25.77;13.23;;;;;;;4.47;100.00;101033.31;5135967;27;20293;-75
2022/01/22 01:43:43;;;;;;;21.33;13.73;;;;;;;4.49;100.00;101031.50;5136345;27;20287;-75
2022/01/22 01:46:10;;;;;;;19.45;13.57;;;;;;;4.34;100.00;101032.53;5135722;27;20201;-75
2022/01/22 01:48:41;;;;;;;23.02;14.15;;;;;;;4.35;100.00;101032.53;5136118;27;20628;-75
2022/01/22 01:51:07;;;;;;;21.35;15.05;;;;;;;4.31;100.00;101025.44;5135867;27;20658;-75
2022/01/22 01:53:49;;;;;;;18.40;12.60;;;;;;;4.37;100.00;101037.88;5131771;27;20232;-75
2022/01/22 01:59:01;;;;;;;21.73;14.07;;;;;;;4.35;100.00;101029.88;5133513;27;20196;-75
2022/01/22 02:01:28;;;;;;;16.00;12.13;;;;;;;4.42;100.00;101025.34;5135457;27;20608;-75
2022/01/22 02:03:54;;;;;;;16.75;11.63;;;;;;;4.43;100.00;101031.56;5135462;27;20187;-75
2022/01/22 02:06:21;;;;;;;18.25;12.65;;;;;;;4.36;100.00;101020.97;5135558;27;20688;-76
2022/01/22 02:08:48;;;;;;;17.95;12.45;;;;;;;4.42;100.00;101020.03;5135318;27;20722;-75
2022/01/22 02:11:18;;;;;;;17.75;12.15;;;;;;;4.34;100.00;101011.19;5134803;27;20299;-75
2022/01/22 02:13:59;;;;;;;23.02;12.60;;;;;;;4.32;100.00;101021.00;5132412;27;20196;-75
2022/01/22 02:24:45;;;;;;;19.35;12.35;;;;;;;4.36;100.00;100999.66;5135436;27;20319;-75
2022/01/22 02:27:12;;;;;;;20.70;11.55;;;;;;;4.35;100.00;100995.19;5134929;27;20194;-76
2022/01/22 02:29:39;;;;;;;17.38;12.48;;;;;;;4.27;100.00;100993.50;5135309;27;20274;-75
2022/01/22 02:32:30;;;;;;;18.40;11.98;;;;;;;4.41;100.00;101006.69;5134480;27;20289;-75
2022/01/22 02:35:04;;;;;;;17.27;11.57;;;;;;;4.46;100.00;101012.88;5135076;27;20953;-75
2022/01/22 02:37:36;;;;;;;13.95;10.50;;;;;;;4.34;100.00;101017.44;5134836;27;20720;-76
2022/01/22 02:40:09;;;;;;;20.55;11.45;;;;;;;4.45;100.00;101006.66;5134819;27;20557;-76
2022/01/22 02:42:36;;;;;;;23.13;11.10;;;;;;;4.31;100.00;101011.25;5134131;27;20185;-75
2022/01/22 02:45:07;;;;;;;19.90;11.75;;;;;;;4.24;100.00;101013.09;5114998;27;20206;-75
2022/01/22 02:47:34;;;;;;;17.67;12.07;;;;;;;4.29;100.00;101011.25;5128542;27;20634;-75
2022/01/22 02:50:01;;;;;;;21.45;12.02;;;;;;;4.19;100.00;101006.91;5134611;27;20175;-76
2022/01/22 02:52:27;;;;;;;15.80;10.43;;;;;;;4.50;100.00;101003.94;5134329;27;20283;-75
2022/01/22 02:54:56;;;;;;;15.55;10.93;;;;;;;4.42;100.00;100997.81;5134713;27;20277;-75
2022/01/22 02:57:23;;;;;;;18.02;9.82;;;;;;;4.42;100.00;100989.81;5134003;27;20327;-75
2022/01/22 02:59:50;;;;;;;17.98;9.77;;;;;;;4.41;100.00;100990.69;5134311;27;20184;-75
2022/01/22 03:02:17;;;;;;;13.60;9.65;;;;;;;4.22;100.00;100993.53;5134096;27;20278;-76
2022/01/22 03:04:47;;;;;;;16.17;9.50;;;;;;;4.32;100.00;101000.56;5134669;27;20231;-74
2022/01/22 03:07:13;;;;;;;19.83;10.20;;;;;;;4.36;100.00;100996.06;5125930;27;20229;-74
2022/01/22 03:09:42;;;;;;;17.65;10.75;;;;;;;4.46;100.00;100997.75;5134087;27;20635;-75
2022/01/22 03:12:47;;;;;;;14.38;8.77;;;;;;;4.38;100.00;100992.47;5129928;27;20206;-75
2022/01/22 03:18:10;;;;;;;15.32;9.13;;;;;;;4.24;100.00;100993.53;5133550;27;20183;-74
2022/01/22 03:29:14;;;;;;;24.35;9.65;;;;;;;4.23;100.00;101002.41;5090690;28;20210;-74
2022/01/22 03:31:42;;;;;;;13.25;9.10;;;;;;;4.34;100.00;100996.13;5090904;28;20204;-75
2022/01/22 03:34:10;;;;;;;15.55;8.60;;;;;;;4.43;100.00;100992.44;5094700;28;20206;-75
2022/01/22 03:36:37;;;;;;;14.75;8.43;;;;;;;4.35;100.00;100981.88;5113329;28;20185;-75
2022/01/22 03:39:06;;;;;;;13.65;8.43;;;;;;;4.32;100.00;100989.00;5113123;28;20207;-75
2022/01/22 03:41:32;;;;;;;16.02;8.15;;;;;;;4.44;100.00;100986.22;5122328;27;20283;-75
2022/01/22 03:43:59;;;;;;;10.65;8.15;;;;;;;4.28;100.00;100990.84;5133469;27;20221;-75
2022/01/22 03:46:28;;;;;;;15.70;8.52;;;;;;;4.35;100.00;100999.66;5133531;27;20663;-75
2022/01/22 03:48:54;;;;;;;13.07;8.35;;;;;;;4.57;100.00;100990.53;5133727;27;20199;-74
2022/01/22 03:51:21;;;;;;;16.60;8.20;;;;;;;4.48;100.00;100985.28;5133155;27;20218;-74
2022/01/22 03:53:47;;;;;;;11.57;6.68;;;;;;;4.39;100.00;100980.94;5133520;27;20233;-74
2022/01/22 03:56:14;;;;;;;11.55;7.50;;;;;;;4.45;100.00;100981.75;5133100;27;20265;-74
2022/01/22 03:58:43;;;;;;;12.05;7.60;;;;;;;4.52;100.00;100984.38;5133297;27;20546;-74
2022/01/22 04:04:00;;;;;;;14.20;7.20;;;;;;;4.39;100.00;100994.28;5129634;27;20212;-76
2022/01/22 04:07:10;;;;;;;12.30;7.55;;;;;;;4.54;100.00;100990.53;5133198;27;20190;-74
2022/01/22 04:09:40;;;;;;;10.65;6.50;;;;;;;4.47;100.00;100995.97;5133055;28;20568;-74
2022/01/22 04:12:09;;;;;;;11.18;7.10;;;;;;;4.47;100.00;101001.31;5132583;28;20202;-74
2022/01/22 04:14:43;;;;;;;7.40;6.30;;;;;;;4.42;100.00;100997.81;5133800;28;20193;-74
2022/01/22 04:17:22;;;;;;;10.20;6.70;;;;;;;4.33;100.00;101002.31;5133360;28;20185;-74
2022/01/22 04:25:24;;;;;;;8.57;6.13;;;;;;;4.53;100.00;100987.91;5133380;28;20184;-74
2022/01/22 04:27:53;;;;;;;10.02;5.82;;;;;;;4.62;100.00;101001.13;5132417;28;20224;-74
2022/01/22 04:30:21;;;;;;;13.10;7.25;;;;;;;4.65;100.00;100995.75;5133923;27;20196;-74
2022/01/22 04:32:48;;;;;;;11.98;5.97;;;;;;;4.68;100.00;100998.41;5135192;27;20209;-74
2022/01/22 04:35:17;;;;;;;12.30;6.78;;;;;;;4.79;97.73;101001.84;5118811;27;20308;-74
2022/01/22 04:37:43;;;;;;;11.93;6.43;;;;;;;4.65;98.74;101017.09;5132694;27;20209;-75
2022/01/22 04:40:11;;;;;;;10.80;6.32;;;;;;;4.76;97.38;100998.31;5137067;27;20281;-74
2022/01/22 04:42:39;;;;;;;11.02;5.93;;;;;;;4.85;97.46;100994.66;5136536;27;20202;-75
2022/01/22 04:45:14;;;;;;;9.15;5.70;;;;;;;4.97;95.57;101000.69;5137578;27;20714;-74
2022/01/22 04:47:49;;;;;;;9.93;5.35;;;;;;;4.93;95.76;100995.41;5136921;27;20632;-75
2022/01/22 04:55:46;;;;;;;9.52;5.38;;;;;;;4.59;98.25;100999.41;5136606;27;20235;-74
2022/01/22 04:58:13;;;;;;;11.32;6.00;;;;;;;4.60;98.40;101002.94;5136285;27;20195;-74
2022/01/22 05:00:45;;;;;;;13.30;6.85;;;;;;;4.38;99.01;101003.16;5137028;27;20641;-75
2022/01/22 05:03:11;;;;;;;11.15;6.30;;;;;;;4.37;99.56;100997.84;5136692;27;20619;-74
2022/01/22 05:05:40;;;;;;;10.35;6.38;;;;;;;4.29;100.00;100994.38;5137030;27;20292;-74
2022/01/22 05:08:06;;;;;;;14.52;7.40;;;;;;;4.27;100.00;100990.84;5134798;27;20223;-74
2022/01/22 05:10:33;;;;;;;9.38;6.38;;;;;;;4.27;100.00;100986.38;5116451;27;20242;-74
2022/01/22 05:13:00;;;;;;;12.13;6.32;;;;;;;4.24;100.00;100991.75;5136566;27;20233;-74
2022/01/22 05:15:26;;;;;;;8.75;6.60;;;;;;;4.30;100.00;100994.38;5136618;27;20671;-74
2022/01/22 05:17:53;;;;;;;11.15;5.95;;;;;;;4.25;100.00;100984.63;5136225;27;20195;-74
2022/01/22 05:20:24;;;;;;;9.95;5.43;;;;;;;4.32;100.00;100989.00;5136062;27;20277;-74
2022/01/22 05:22:58;;;;;;;9.02;6.90;;;;;;;4.36;100.00;100978.31;5136104;27;20195;-74
2022/01/22 05:25:31;;;;;;;8.85;7.05;;;;;;;4.29;100.00;100983.72;5136345;27;20188;-74
2022/01/22 05:28:30;;;;;;;10.50;6.28;;;;;;;4.32;100.00;100984.56;5135092;27;20218;-75
2022/01/22 05:31:05;;;;;;;14.95;7.60;;;;;;;4.27;100.00;100981.03;5136134;27;20211;-75
2022/01/22 05:39:08;;;;;;;12.00;7.30;;;;;;;4.25;100.00;101000.63;5115680;28;20650;-74
2022/01/22 05:41:34;;;;;;;11.30;7.15;;;;;;;4.23;100.00;101003.34;5132735;27;20197;-75
2022/01/22 05:44:01;;;;;;;15.02;8.20;;;;;;;4.23;100.00;101003.34;5135904;27;20277;-75
2022/01/22 05:46:28;;;;;;;12.93;8.20;;;;;;;4.33;100.00;101005.00;5135569;27;20282;-75
2022/01/22 05:48:54;;;;;;;15.88;7.90;;;;;;;4.35;100.00;101007.66;5135465;27;20237;-75
2022/01/22 05:51:21;;;;;;;11.43;8.15;;;;;;;4.36;100.00;101012.97;5135556;27;20198;-75
2022/01/22 05:54:11;;;;;;;12.48;7.45;;;;;;;4.23;100.00;101014.00;5135996;27;20283;-76
2022/01/22 05:59:36;;;;;;;13.95;8.30;;;;;;;4.34;100.00;101009.44;5135831;27;20650;-75
2022/01/22 06:02:03;;;;;;;18.92;9.70;;;;;;;4.27;100.00;101014.84;5136596;27;20659;-75
2022/01/22 06:04:30;;;;;;;14.85;8.60;;;;;;;4.23;100.00;101015.75;5128612;27;20656;-75
2022/01/22 06:06:57;;;;;;;14.95;9.13;;;;;;;4.23;100.00;101022.00;5116124;27;20233;-75
2022/01/22 06:09:24;;;;;;;13.90;9.02;;;;;;;4.28;100.00;101022.81;5144318;27;20711;-75
2022/01/22 06:11:56;;;;;;;13.98;8.60;;;;;;;4.38;100.00;101019.16;5148278;27;20201;-75
2022/01/22 06:14:23;;;;;;;16.98;9.40;;;;;;;4.36;100.00;101020.97;5135738;27;20193;-75
2022/01/22 06:16:50;;;;;;;14.82;9.93;;;;;;;4.35;100.00;101024.53;5135658;27;20248;-75
2022/01/22 06:19:16;;;;;;;24.20;9.80;;;;;;;4.25;100.00;101029.97;5135608;27;20297;-74
2022/01/22 06:21:43;;;;;;;22.50;10.55;;;;;;;4.55;100.00;101036.78;5135445;27;20183;-74
2022/01/22 06:24:12;;;;;;;14.73;9.38;;;;;;;4.38;100.00;101034.28;5135303;27;20195;-75
2022/01/22 06:26:39;;;;;;;20.17;11.15;;;;;;;4.24;100.00;101031.75;5135503;27;20197;-74
2022/01/22 06:29:07;;;;;;;17.25;9.30;;;;;;;4.18;100.00;101035.38;5134850;27;20204;-75
2022/01/22 06:31:34;;;;;;;22.50;10.48;;;;;;;4.29;100.00;101024.59;5135120;27;20224;-75
2022/01/22 06:34:00;;;;;;;22.88;11.43;;;;;;;4.28;100.00;101027.28;5132795;27;20204;-75
2022/01/22 06:36:28;;;;;;;20.35;10.30;;;;;;;4.18;100.00;101031.78;5115846;27;20199;-76
2022/01/22 06:38:58;;;;;;;15.48;10.07;;;;;;;4.22;100.00;101036.22;5115004;27;20231;-76
2022/01/22 06:44:12;;;;;;;14.85;9.40;;;;;;;4.41;100.00;101044.03;5114185;28;20189;-76
2022/01/22 06:46:38;;;;;;;20.83;10.63;;;;;;;4.20;100.00;101047.78;5114810;28;20213;-76
2022/01/22 06:49:05;;;;;;;22.48;10.65;;;;;;;4.28;100.00;101052.16;5113876;28;20292;-77
2022/01/22 06:51:33;;;;;;;16.98;9.93;;;;;;;4.33;100.00;101057.44;5113970;28;20580;-78
2022/01/22 06:54:00;;;;;;;15.35;9.65;;;;;;;4.57;100.00;101057.22;5113179;28;20620;-77
2022/01/22 06:56:28;;;;;;;18.83;11.80;;;;;;;4.42;100.00;101059.16;5113549;28;20212;-77
2022/01/22 06:58:55;;;;;;;19.88;10.32;;;;;;;4.67;100.00;101065.13;5114422;27;20281;-77
2022/01/22 07:01:23;;;;;;;19.83;10.20;;;;;;;4.43;100.00;101068.91;5113761;27;20222;-77
2022/01/22 07:03:50;;;;;;;19.35;10.63;;;;;;;4.72;100.00;101065.94;5116139;27;20277;-77
2022/01/22 07:06:16;;;;;;;19.15;11.10;;;;;;;4.67;100.00;101057.13;5134266;27;20257;-77
2022/01/22 07:08:43;;;;;;;25.10;10.95;;;;;;;4.50;100.00;101066.19;5133398;27;20266;-77
2022/01/22 07:11:10;;;;;;;13.38;9.48;;;;;;;4.51;100.00;101072.41;5133556;27;20686;-77
2022/01/22 07:13:37;;;;;;;18.95;10.82;;;;;;;4.50;100.00;101076.84;5133628;27;20579;-78
2022/01/22 07:16:04;;;;;;;20.45;10.63;;;;;;;4.57;100.00;101083.03;5133327;27;20258;-77
2022/01/22 07:18:33;;;;;;;17.45;9.52;;;;;;;4.60;100.00;101083.84;5133620;27;20290;-78
2022/01/22 07:21:03;;;;;;;18.63;10.68;;;;;;;4.62;100.00;101088.31;5133726;27;20193;-77
2022/01/22 07:23:56;;;;;;;17.27;10.02;;;;;;;4.39;100.00;101090.28;5133646;27;20517;-76
2022/01/22 07:26:23;;;;;;;17.92;9.82;;;;;;;4.30;100.00;101082.38;5133930;27;20236;-78
2022/01/22 07:28:49;;;;;;;19.67;10.93;;;;;;;4.30;100.00;101078.81;5134266;27;20222;-76
2022/01/22 07:31:20;;;;;;;17.23;10.75;;;;;;;4.25;100.00;101078.88;5128672;27;20726;-76
2022/01/22 07:33:48;;;;;;;14.85;9.98;;;;;;;4.31;100.00;101067.25;5133764;27;20230;-75
2022/01/22 07:36:15;;;;;;;20.17;11.45;;;;;;;4.38;100.00;101068.94;5114116;27;20669;-75
2022/01/22 07:38:42;;;;;;;15.77;10.65;;;;;;;4.50;100.00;101060.84;5125659;27;20269;-75
2022/01/22 07:41:09;;;;;;;19.90;11.30;;;;;;;4.67;100.00;101067.78;5133328;27;20182;-75
2022/01/22 07:43:36;;;;;;;19.73;11.00;;;;;;;4.63;100.00;101066.94;5133395;27;20645;-75
2022/01/22 07:46:03;;;;;;;16.20;11.43;;;;;;;4.49;100.00;101069.72;5133114;27;20718;-75
2022/01/22 07:48:29;;;;;;;21.92;10.55;;;;;;;4.47;100.00;101074.19;5132886;27;20238;-77
2022/01/22 07:50:58;;;;;;;21.05;11.30;;;;;;;4.56;100.00;101078.56;5133249;27;20220;-77
2022/01/22 07:53:25;;;;;;;17.40;11.10;;;;;;;4.64;100.00;101073.16;5132318;27;20309;-76
2022/01/22 07:55:51;;;;;;;23.25;12.52;;;;;;;4.74;100.00;101077.50;5133193;27;20627;-76
2022/01/22 07:58:18;;;;;;;15.95;10.38;;;;;;;4.76;100.00;101081.91;5133180;27;20211;-75
2022/01/22 08:00:45;;;;;;;24.08;11.70;;;;;;;4.86;100.00;101087.16;5122930;27;20205;-76
2022/01/22 08:03:11;;;;;;;23.75;11.30;;;;;;;5.15;100.00;101079.69;5112848;28;20197;-76
2022/01/22 08:05:38;;;;;;;21.83;10.93;;;;;;;4.93;100.00;101081.75;5131231;27;20204;-76
2022/01/22 08:08:06;;;;;;;24.30;11.15;;;;;;;4.98;100.00;101076.34;5133378;27;20183;-76
2022/01/22 08:10:33;;;;;;;17.15;11.10;;;;;;;4.73;100.00;101081.06;5133193;28;20224;-75
2022/01/22 08:12:59;;;;;;;20.13;10.77;;;;;;;4.77;100.00;101080.13;5133808;28;20653;-76
2022/01/22 08:15:26;;;;;;;18.33;11.77;;;;;;;4.97;100.00;101093.25;5133222;28;20641;-75
2022/01/22 08:17:53;;;;;;;21.48;11.65;;;;;;;5.07;100.00;101086.03;5134115;28;20592;-76
2022/01/22 08:20:21;;;;;;;22.52;12.23;;;;;;;5.07;100.00;101092.25;5133949;28;20285;-75
2022/01/22 08:22:48;;;;;;;20.30;10.80;;;;;;;4.73;100.00;101087.28;5133307;28;20276;-76
2022/01/22 08:25:16;;;;;;;18.38;10.95;;;;;;;4.79;100.00;101097.00;5133493;28;20284;-76
2022/01/22 08:28:52;;;;;;;17.05;10.98;;;;;;;4.99;100.00;101099.47;5133866;28;20284;-76
2022/01/22 08:30:30;;;;;;;19.08;10.88;;;;;;;4.94;100.00;101095.97;5124973;28;20281;-76
2022/01/22 08:33:09;;;;;;;20.33;13.50;;;;;;;4.85;100.00;101098.75;5112815;28;20253;-76
2022/01/22 08:35:53;;;;;;;21.30;10.70;;;;;;;5.21;100.00;101100.97;5112706;28;20183;-76
2022/01/22 08:38:21;;;;;;;18.98;11.80;;;;;;;5.36;100.00;101107.03;5113189;28;20643;-76
2022/01/22 08:40:50;;;;;;;20.52;11.90;;;;;;;5.38;100.00;101105.22;5132383;28;20201;-75
2022/01/22 08:43:17;;;;;;;19.00;11.18;;;;;;;5.39;100.00;101107.00;5132808;27;20259;-77
2022/01/22 08:45:44;;;;;;;21.10;11.98;;;;;;;5.43;100.00;101109.63;5133310;27;20267;-77
2022/01/22 08:48:10;;;;;;;19.77;11.43;;;;;;;5.43;99.91;101111.41;5132875;27;20280;-76
2022/01/22 08:50:37;;;;;;;21.90;12.60;;;;;;;5.28;100.00;101111.59;5126398;27;20606;-77
2022/01/22 08:53:04;;;;;;;22.98;15.57;;;;;;;5.15;100.00;101109.06;5111977;28;20310;-77
2022/01/22 08:55:31;;;;;;;18.85;12.23;;;;;;;5.26;100.00;101106.25;5121164;28;20191;-76
2022/01/22 08:57:59;;;;;;;22.95;13.02;;;;;;;5.31;100.00;101101.75;5132488;28;20202;-76
2022/01/22 09:00:26;;;;;;;24.25;13.73;;;;;;;5.34;100.00;101096.38;5127672;27;20247;-76
2022/01/22 09:02:53;;;;;;;22.55;12.80;;;;;;;5.13;100.00;101100.22;5133040;28;20273;-76
2022/01/22 09:05:30;;;;;;;22.20;13.25;;;;;;;5.09;100.00;101109.16;5133273;28;20675;-76
2022/01/22 09:07:57;;;;;;;23.75;12.98;;;;;;;5.14;100.00;101101.09;5132718;28;20182;-77
2022/01/22 09:10:24;;;;;;;24.05;12.27;;;;;;;5.06;100.00;101106.50;5132699;28;20324;-76
2022/01/22 09:12:50;;;;;;;19.33;11.85;;;;;;;5.02;100.00;101102.13;5132817;28;20224;-76
2022/01/22 09:15:18;;;;;;;16.75;12.20;;;;;;;5.14;100.00;101099.28;5133175;28;20183;-76
2022/01/22 09:17:47;;;;;;;22.77;14.10;;;;;;;5.28;100.00;101112.47;5135535;27;20266;-77
2022/01/22 09:20:30;;;;;;;21.73;12.80;;;;;;;5.12;100.00;101109.09;5136610;27;20206;-76
2022/01/22 09:22:56;;;;;;;17.83;12.35;;;;;;;5.47;100.00;101102.44;5136726;27;20198;-77
2022/01/22 09:25:23;;;;;;;24.60;13.90;;;;;;;5.54;100.00;101104.13;5136925;27;20220;-76
2022/01/22 09:27:50;;;;;;;22.02;13.45;;;;;;;5.66;100.00;101108.44;5136767;27;20587;-76
2022/01/22 09:30:18;;;;;;;22.00;13.52;;;;;;;5.68;99.37;101111.09;5128194;27;20195;-77
2022/01/22 09:32:45;;;;;;;22.23;13.05;;;;;;;5.49;100.00;101119.31;5115781;28;20672;-77
2022/01/22 09:35:12;;;;;;;20.38;12.77;;;;;;;5.42;100.00;101129.22;5116152;28;20225;-76
2022/01/22 09:37:42;;;;;;;22.63;13.20;;;;;;;5.39;100.00;101136.41;5115630;28;20502;-75
2022/01/22 09:40:09;;;;;;;23.77;14.40;;;;;;;5.52;100.00;101132.66;5115774;28;20287;-76
2022/01/22 09:42:36;;;;;;;25.92;13.35;;;;;;;5.39;100.00;101129.25;5116009;28;20267;-77
2022/01/22 09:45:04;;;;;;;23.02;12.82;;;;;;;5.55;100.00;101132.63;5115436;28;20199;-77
2022/01/22 09:47:33;;;;;;;22.63;12.45;;;;;;;5.64;100.00;101129.81;5115783;28;20298;-75
2022/01/22 09:50:00;;;;;;;15.95;12.70;;;;;;;5.75;100.00;101126.13;5115276;28;20220;-76
2022/01/22 09:52:27;;;;;;;20.25;12.90;;;;;;;5.89;98.27;101134.81;5115444;28;20257;-76
2022/01/22 09:54:54;;;;;;;26.55;12.77;;;;;;;5.99;97.37;101122.22;5115701;28;20649;-76
2022/01/22 09:57:21;;;;;;;17.58;13.05;;;;;;;6.18;96.57;101126.41;5115413;28;20194;-76
2022/01/22 09:59:47;;;;;;;19.08;12.15;;;;;;;6.10;95.36;101127.41;5115141;27;20207;-76
2022/01/22 10:02:17;;;;;;;17.95;12.57;;;;;;;5.66;99.07;101131.59;5114755;28;20290;-76
2022/01/22 10:04:48;;;;;;;17.80;10.80;;;;;;;6.12;97.13;101125.63;5114818;28;20238;-76
2022/01/22 10:07:17;;;;;;;17.50;12.07;;;;;;;5.92;96.95;101129.41;5115259;28;20180;-76
2022/01/22 10:09:57;;;;;;;20.10;11.10;;;;;;;6.12;95.98;101130.97;5114970;28;20227;-76
2022/01/22 10:12:26;;;;;;;20.80;11.30;;;;;;;5.84;97.19;101132.22;5115470;28;20265;-75
2022/01/22 10:15:09;;;;;;;19.73;12.60;;;;;;;5.99;98.05;101123.13;5114769;28;20613;-76
2022/01/22 10:17:43;;;;;;;17.10;11.43;;;;;;;6.19;96.21;101124.59;5114956;28;20206;-77
2022/01/22 10:20:40;;;;;;;20.65;11.68;;;;;;;6.09;96.06;101125.69;5115004;28;20223;-77
2022/01/22 10:23:17;;;;;;;20.58;11.23;;;;;;;5.80;97.97;101124.25;5114721;28;20222;-75
2022/01/22 10:25:49;;;;;;;19.48;11.35;;;;;;;6.17;96.14;101115.72;5115198;28;20566;-76
2022/01/22 10:28:21;;;;;;;25.77;13.00;;;;;;;6.13;96.59;101122.03;5114771;28;20199;-76
2022/01/22 10:30:51;;;;;;;18.85;10.77;;;;;;;6.15;95.86;101114.84;5114282;28;20280;-77
2022/01/22 10:33:31;;;;;;;20.17;12.05;;;;;;;6.38;94.43;101117.19;5114766;28;20208;-76
2022/01/22 10:36:12;;;;;;;19.33;10.98;;;;;;;6.42;93.53;101117.09;5115018;28;20281;-76
2022/01/22 10:38:40;;;;;;;19.45;11.90;;;;;;;6.33;93.94;101116.34;5115059;28;20187;-76
2022/01/22 10:41:07;;;;;;;20.00;11.63;;;;;;;6.45;93.61;101118.84;5114625;27;20215;-75
2022/01/22 10:43:41;;;;;;;22.55;12.10;;;;;;;6.49;91.82;101125.91;5114279;28;20186;-76
2022/01/22 10:46:13;;;;;;;21.38;13.48;;;;;;;6.33;94.27;101114.59;5114016;28;20209;-76
2022/01/22 10:48:42;;;;;;;21.20;11.55;;;;;;;6.59;93.10;101124.84;5114422;28;20273;-77
2022/01/22 10:51:11;;;;;;;15.65;11.60;;;;;;;6.77;90.95;101120.94;5114181;28;20290;-76
2022/01/22 10:53:44;;;;;;;18.00;12.63;;;;;;;6.87;90.90;101122.56;5113880;28;20210;-78
2022/01/22 10:56:13;;;;;;;17.42;11.18;;;;;;;7.00;88.81;101115.16;5114647;28;20216;-76
2022/01/22 10:58:57;;;;;;;17.42;11.13;;;;;;;6.77;89.76;101114.72;5113914;28;20240;-77
2022/01/22 11:01:25;;;;;;;20.60;12.55;;;;;;;6.64;91.10;101116.72;5120699;27;20559;-77
2022/01/22 11:04:07;;;;;;;22.05;12.43;;;;;;;6.66;90.96;101107.75;5134831;27;20608;-75
2022/01/22 11:06:37;;;;;;;21.65;11.82;;;;;;;6.43;92.76;101109.97;5134521;27;20183;-76
2022/01/22 11:09:05;;;;;;;19.38;13.88;;;;;;;6.77;92.00;101120.94;5134291;27;20692;-75
2022/01/22 11:11:36;;;;;;;20.73;13.63;;;;;;;6.61;91.84;101122.13;5134529;27;20183;-75
2022/01/22 11:14:04;;;;;;;20.48;13.10;;;;;;;6.69;92.21;101120.19;5134271;27;20217;-75
2022/01/22 11:16:32;;;;;;;20.73;13.15;;;;;;;6.75;92.20;101127.25;5134296;27;20211;-75
2022/01/22 11:18:59;;;;;;;22.58;13.70;;;;;;;6.99;90.58;101125.91;5134566;27;20187;-75
2022/01/22 11:21:27;;;;;;;22.85;14.20;;;;;;;6.77;91.46;101122.75;5134186;27;20274;-75
2022/01/22 11:23:55;;;;;;;17.88;13.38;;;;;;;6.76;91.77;101131.66;5134199;27;20580;-75
2022/01/22 11:26:21;;;;;;;20.67;14.40;;;;;;;6.76;92.02;101119.19;5134040;27;20230;-76
2022/01/22 11:28:52;;;;;;;23.80;13.65;;;;;;;6.51;92.73;101125.88;5133928;27;20193;-77
2022/01/22 11:31:21;;;;;;;18.13;12.70;;;;;;;6.37;95.09;101124.31;5124977;27;20233;-77
2022/01/22 11:33:50;;;;;;;22.38;12.95;;;;;;;6.30;96.07;101114.63;5133792;27;20242;-75
2022/01/22 11:36:22;;;;;;;15.75;11.75;;;;;;;6.42;94.78;101119.78;5134217;27;20193;-75
2022/01/22 11:38:53;;;;;;;19.90;13.25;;;;;;;6.53;93.83;101121.38;5133977;27;20198;-75
2022/01/22 11:41:23;;;;;;;22.13;13.35;;;;;;;6.57;93.13;101123.09;5133705;27;20194;-75
2022/01/22 11:44:04;;;;;;;20.85;14.85;;;;;;;6.56;93.55;101121.34;5133725;27;20298;-76
2022/01/22 11:46:35;;;;;;;23.13;14.90;;;;;;;6.64;93.46;101114.03;5133840;27;20612;-76
2022/01/22 11:49:14;;;;;;;21.10;14.50;;;;;;;6.75;92.92;101116.53;5133718;27;20278;-75
2022/01/22 11:51:42;;;;;;;21.67;13.43;;;;;;;7.06;90.60;101125.75;5133543;27;20283;-76
2022/01/22 11:54:09;;;;;;;23.85;13.88;;;;;;;6.99;90.43;101117.88;5134147;27;20207;-76
2022/01/22 11:56:46;;;;;;;19.00;13.02;;;;;;;6.87;91.66;101113.63;5133783;27;20195;-77
2022/01/22 11:59:31;;;;;;;21.77;14.00;;;;;;;6.80;91.72;101120.00;5128676;27;20186;-74
2022/01/22 12:02:07;;;;;;;17.25;12.60;;;;;;;6.92;91.20;101118.88;5133753;27;20519;-75
2022/01/22 12:04:52;;;;;;;18.23;13.32;;;;;;;6.81;91.42;101117.31;5133390;27;20226;-75
2022/01/22 12:07:23;;;;;;;15.73;11.80;;;;;;;6.87;91.34;101111.84;5133918;27;20473;-76
2022/01/22 12:10:33;;;;;;;19.05;13.13;;;;;;;7.10;89.11;101110.53;5133156;27;20230;-76
2022/01/22 12:16:09;;;;;;;21.40;13.60;;;;;;;7.28;88.31;101101.19;5133380;28;20243;-76
2022/01/22 12:18:39;;;;;;;20.05;12.70;;;;;;;7.13;88.79;101093.50;5133774;28;20198;-76
2022/01/22 12:23:56;;;;;;;20.63;12.40;;;;;;;7.23;88.19;101093.25;5133183;28;20215;-76
2022/01/22 12:26:50;;;;;;;18.92;12.20;;;;;;;7.14;88.82;101093.44;5133302;28;20234;-76
2022/01/22 12:29:42;;;;;;;19.58;14.00;;;;;;;7.34;89.13;101094.84;5124734;28;20187;-75
2022/01/22 12:32:24;;;;;;;18.58;12.65;;;;;;;7.32;87.71;101093.06;5112613;28;20191;-75
2022/01/22 12:34:56;;;;;;;17.48;12.43;;;;;;;7.19;88.97;101096.94;5112912;28;20281;-76